createdAt,value
2022-07-29T00:01:26.206Z,50.01
2022-07-29T00:04:11.029Z,50.06
2022-07-29T00:06:56.322Z,49.36
2022-07-29T00:09:43.011Z,49.44
2022-07-29T00:12:35.791Z,49.38
2022-07-29T00:15:21.057Z,49.23
2022-07-29T00:18:05.877Z,49.71
2022-07-29T00:20:50.580Z,50.06
2022-07-29T00:23:36.911Z,50.60
2022-07-29T00:26:21.825Z,49.61
2022-07-29T00:29:33.069Z,49.87
2022-07-29T00:32:11.641Z,50.15
2022-07-29T00:34:56.316Z,50.08
2022-07-29T00:37:41.091Z,50.36
2022-07-29T00:40:25.846Z,49.90
2022-07-29T00:43:10.668Z,49.68
2022-07-29T00:45:55.535Z,50.57
2022-07-29T00:48:40.287Z,50.64
2022-07-29T00:51:25.562Z,50.17
2022-07-29T00:54:11.870Z,50.14
2022-07-29T00:56:57.300Z,49.93
2022-07-29T00:59:41.903Z,49.43
2022-07-29T01:02:26.790Z,50.58
2022-07-29T01:05:12.068Z,50.08
2022-07-29T01:07:56.793Z,50.30
2022-07-29T01:10:41.554Z,50.55
2022-07-29T01:13:26.258Z,51.40
2022-07-29T01:16:11.122Z,50.53
2022-07-29T01:18:56.335Z,50.02
2022-07-29T01:21:41.196Z,50.22
2022-07-29T01:24:27.435Z,50.87
2022-07-29T01:27:12.030Z,50.28
2022-07-29T01:30:01.395Z,49.92
2022-07-29T01:32:50.330Z,50.56
2022-07-29T01:35:34.942Z,50.51
2022-07-29T01:38:19.735Z,50.42
2022-07-29T01:41:04.997Z,50.43
2022-07-29T01:43:49.656Z,50.53
2022-07-29T01:46:34.439Z,50.68
2022-07-29T01:49:19.363Z,50.77
2022-07-29T01:52:04.514Z,50.84
2022-07-29T01:54:49.197Z,50.98
2022-07-29T01:57:34.023Z,50.68
2022-07-29T02:00:18.840Z,50.75
2022-07-29T02:03:03.852Z,51.16
2022-07-29T02:05:48.494Z,50.96
2022-07-29T02:08:33.312Z,50.18
2022-07-29T02:11:18.097Z,50.71
2022-07-29T02:14:03.471Z,51.05
2022-07-29T02:16:48.331Z,51.02
2022-07-29T02:19:32.886Z,50.84
2022-07-29T02:22:17.899Z,50.81
2022-07-29T02:25:03.187Z,50.51
2022-07-29T02:27:48.943Z,50.65
2022-07-29T02:30:33.658Z,50.24
2022-07-29T02:33:18.533Z,49.97
2022-07-29T02:36:03.187Z,49.87
2022-07-29T02:38:48.067Z,49.48
2022-07-29T02:41:32.745Z,50.09
2022-07-29T02:44:17.846Z,49.80
2022-07-29T02:47:02.863Z,49.39
2022-07-29T02:49:48.067Z,49.16
2022-07-29T02:52:33.100Z,48.66
2022-07-29T02:55:17.875Z,48.87
2022-07-29T02:58:02.749Z,49.00
2022-07-29T03:00:47.510Z,49.08
2022-07-29T03:03:32.281Z,49.67
2022-07-29T03:06:30.954Z,49.38
2022-07-29T03:09:21.768Z,49.46
2022-07-29T03:12:06.537Z,49.87
2022-07-29T03:14:51.253Z,50.47
2022-07-29T03:17:36.230Z,50.47
2022-07-29T03:20:21.020Z,50.51
2022-07-29T03:23:05.712Z,50.52
2022-07-29T03:25:50.559Z,51.11
2022-07-29T03:28:35.318Z,50.76
2022-07-29T03:31:21.670Z,50.51
2022-07-29T03:34:06.937Z,51.54
2022-07-29T03:36:51.807Z,51.41
2022-07-29T03:39:36.593Z,51.49
2022-07-29T03:42:21.279Z,51.04
2022-07-29T03:45:06.172Z,50.83
2022-07-29T03:47:53.742Z,50.20
2022-07-29T03:50:40.663Z,50.50
2022-07-29T03:53:25.416Z,49.96
2022-07-29T03:56:10.258Z,49.98
2022-07-29T03:58:55.019Z,49.95
2022-07-29T04:01:39.830Z,49.75
2022-07-29T04:04:25.121Z,50.15
2022-07-29T04:07:12.369Z,49.35
2022-07-29T04:09:57.425Z,49.92
2022-07-29T04:12:42.353Z,49.62
2022-07-29T04:15:26.929Z,50.14
2022-07-29T04:18:16.637Z,50.19
2022-07-29T04:21:01.410Z,50.45
2022-07-29T04:23:47.935Z,50.79
2022-07-29T04:26:38.048Z,50.30
2022-07-29T04:29:22.827Z,50.27
2022-07-29T04:32:07.530Z,50.26
2022-07-29T04:34:52.420Z,49.92
2022-07-29T04:37:37.197Z,49.71
2022-07-29T04:40:21.970Z,48.60
2022-07-29T04:43:06.670Z,48.09
2022-07-29T04:45:52.485Z,48.23
2022-07-29T04:48:37.700Z,47.97
2022-07-29T04:51:22.496Z,48.50
2022-07-29T04:54:07.234Z,48.01
2022-07-29T04:56:51.989Z,47.94
2022-07-29T04:59:36.819Z,47.87
2022-07-29T05:02:21.564Z,47.26
2022-07-29T05:05:06.272Z,47.37
2022-07-29T05:07:50.987Z,47.20
2022-07-29T05:10:35.701Z,46.76
2022-07-29T05:13:20.492Z,46.23
2022-07-29T05:16:05.183Z,45.61
2022-07-29T05:18:50.109Z,45.16
2022-07-29T05:21:34.811Z,45.09
2022-07-29T05:24:20.024Z,43.19
2022-07-29T05:27:05.276Z,44.03
2022-07-29T05:29:49.928Z,43.79
2022-07-29T05:32:34.656Z,43.50
2022-07-29T05:35:19.369Z,42.44
2022-07-29T05:38:04.027Z,43.12
2022-07-29T05:40:48.812Z,41.32
2022-07-29T05:43:33.585Z,37.31
2022-07-29T05:46:18.328Z,35.77
2022-07-29T05:49:03.767Z,33.74
2022-07-29T05:51:48.832Z,35.59
2022-07-29T05:54:33.558Z,37.70
2022-07-29T05:57:18.250Z,38.76
2022-07-29T06:00:02.938Z,35.09
2022-07-29T06:02:47.562Z,31.35
2022-07-29T06:05:33.974Z,27.71
2022-07-29T06:08:18.823Z,25.50
2022-07-29T06:11:03.479Z,23.18
2022-07-29T06:13:48.346Z,22.70
2022-07-29T06:16:33.175Z,24.56
2022-07-29T06:19:18.604Z,23.57
2022-07-29T06:22:03.195Z,21.47
2022-07-29T06:24:48.136Z,19.95
2022-07-29T06:27:32.862Z,20.01
2022-07-29T06:30:17.736Z,19.51
2022-07-29T06:33:02.518Z,20.16
2022-07-29T06:35:53.192Z,25.05
2022-07-29T06:38:42.908Z,27.36
2022-07-29T06:41:32.464Z,28.53
2022-07-29T06:44:17.527Z,26.76
2022-07-29T06:47:02.722Z,25.71
2022-07-29T06:49:47.592Z,23.27
2022-07-29T06:52:32.262Z,19.98
2022-07-29T06:55:25.083Z,18.69
2022-07-29T06:58:10.491Z,21.00
2022-07-29T07:00:55.252Z,20.42
2022-07-29T07:03:40.351Z,21.78
2022-07-29T07:06:25.080Z,21.18
2022-07-29T07:09:09.756Z,22.81
2022-07-29T07:11:54.575Z,24.16
2022-07-29T07:14:39.148Z,23.35
2022-07-29T07:17:23.852Z,24.38
2022-07-29T07:20:08.708Z,25.87
2022-07-29T07:22:53.999Z,26.92
2022-07-29T07:25:38.745Z,27.62
2022-07-29T07:28:24.746Z,28.93
2022-07-29T07:31:09.788Z,29.21
2022-07-29T07:33:54.588Z,28.76
2022-07-29T07:36:39.881Z,26.58
2022-07-29T07:39:24.958Z,28.30
2022-07-29T07:42:10.310Z,30.63
2022-07-29T07:45:12.483Z,32.49
2022-07-29T07:47:57.803Z,32.36
2022-07-29T07:50:42.520Z,33.63
2022-07-29T07:53:27.306Z,34.23
2022-07-29T07:56:12.982Z,35.94
2022-07-29T07:58:57.854Z,36.01
2022-07-29T08:01:55.134Z,37.22
2022-07-29T08:04:41.572Z,37.45
2022-07-29T08:07:26.320Z,37.70
2022-07-29T08:10:10.990Z,38.60
2022-07-29T08:12:55.797Z,39.49
2022-07-29T08:15:40.520Z,39.10
2022-07-29T08:18:25.344Z,39.63
2022-07-29T08:21:10.102Z,39.38
2022-07-29T08:24:00.678Z,38.86
2022-07-29T08:26:47.521Z,39.55
2022-07-29T08:29:32.182Z,39.66
2022-07-29T08:32:31.122Z,38.03
2022-07-29T08:35:21.580Z,37.48
2022-07-29T08:38:06.417Z,37.87
2022-07-29T08:40:51.066Z,37.74
2022-07-29T08:43:35.856Z,38.16
2022-07-29T08:46:20.516Z,38.11
2022-07-29T08:49:05.938Z,37.72
2022-07-29T08:51:51.096Z,36.65
2022-07-29T08:54:35.738Z,37.77
2022-07-29T08:57:20.469Z,36.72
2022-07-29T09:00:08.134Z,36.92
2022-07-29T09:02:56.976Z,36.22
2022-07-29T09:05:44.927Z,36.10
2022-07-29T09:08:33.114Z,35.43
2022-07-29T09:11:17.710Z,35.27
2022-07-29T09:14:02.660Z,36.23
2022-07-29T09:16:53.152Z,38.29
2022-07-29T09:19:39.031Z,39.10
2022-07-29T09:22:30.064Z,40.09
2022-07-29T09:25:14.842Z,40.19
2022-07-29T09:27:59.599Z,40.74
2022-07-29T09:30:44.446Z,40.91
2022-07-29T09:33:29.090Z,41.99
2022-07-29T09:36:14.118Z,42.44
2022-07-29T09:38:58.748Z,43.13
2022-07-29T09:41:43.578Z,42.61
2022-07-29T09:44:28.442Z,43.95
2022-07-29T09:47:13.327Z,45.83
2022-07-29T09:49:58.080Z,47.02
2022-07-29T09:52:42.798Z,47.39
2022-07-29T09:55:27.603Z,45.95
2022-07-29T09:58:12.391Z,45.05
2022-07-29T10:00:57.359Z,46.74
2022-07-29T10:03:42.123Z,47.24
2022-07-29T10:06:27.361Z,47.47
2022-07-29T10:09:12.249Z,46.86
2022-07-29T10:11:56.969Z,47.08
2022-07-29T10:14:42.226Z,46.45
2022-07-29T10:17:26.938Z,50.20
2022-07-29T10:20:16.303Z,53.25
2022-07-29T10:23:01.593Z,53.36
2022-07-29T10:25:46.811Z,52.93
2022-07-29T10:28:31.602Z,51.99
2022-07-29T10:31:16.350Z,51.45
2022-07-29T10:34:01.677Z,51.96
2022-07-29T10:36:46.372Z,51.05
2022-07-29T10:39:34.345Z,51.17
2022-07-29T10:42:29.854Z,51.47
2022-07-29T10:45:19.184Z,50.68
2022-07-29T10:48:03.866Z,51.64
2022-07-29T10:50:50.543Z,52.09
2022-07-29T10:53:35.837Z,52.14
2022-07-29T10:56:20.720Z,52.48
2022-07-29T10:59:10.412Z,53.20
2022-07-29T11:02:10.820Z,53.43
2022-07-29T11:05:01.620Z,53.66
2022-07-29T11:07:46.602Z,53.29
2022-07-29T11:10:31.950Z,53.10
2022-07-29T11:13:16.894Z,52.62
2022-07-29T11:16:02.098Z,52.85
2022-07-29T11:18:46.811Z,53.60
2022-07-29T11:21:48.877Z,53.30
2022-07-29T11:24:36.300Z,53.55
2022-07-29T11:27:21.733Z,53.07
2022-07-29T11:30:06.924Z,52.92
2022-07-29T11:32:51.754Z,52.17
2022-07-29T11:35:39.646Z,53.05
2022-07-29T11:38:24.613Z,53.07
2022-07-29T11:41:12.962Z,53.14
2022-07-29T11:43:57.676Z,51.35
2022-07-29T11:46:42.414Z,50.29
2022-07-29T11:49:32.263Z,54.52
2022-07-29T11:52:18.093Z,56.29
2022-07-29T11:55:09.778Z,57.06
2022-07-29T12:01:04.215Z,56.32
2022-07-29T12:03:50.245Z,55.04
2022-07-29T12:06:34.860Z,53.37
2022-07-29T12:09:19.654Z,55.62
2022-07-29T12:12:05.760Z,53.23
2022-07-29T12:14:50.724Z,53.27
2022-07-29T12:17:36.077Z,53.98
2022-07-29T12:20:21.179Z,55.17
2022-07-29T12:23:07.497Z,54.51
2022-07-29T12:25:52.137Z,53.81
2022-07-29T12:28:38.755Z,57.21
2022-07-29T12:31:41.985Z,58.75
2022-07-29T12:34:28.917Z,58.63
2022-07-29T12:37:13.724Z,57.67
2022-07-29T12:39:58.364Z,55.48
2022-07-29T12:42:43.231Z,54.74
2022-07-29T12:45:27.985Z,54.75
2022-07-29T12:48:12.685Z,52.91
2022-07-29T12:50:57.627Z,53.38
2022-07-29T12:53:42.299Z,52.98
2022-07-29T12:56:42.224Z,51.25
2022-07-29T12:59:27.303Z,51.35
2022-07-29T13:02:12.216Z,51.23
2022-07-29T13:04:56.762Z,51.46
2022-07-29T13:07:55.822Z,50.83
2022-07-29T13:10:42.594Z,51.57
2022-07-29T13:13:28.035Z,55.61
2022-07-29T13:16:12.828Z,51.13
2022-07-29T13:18:57.419Z,54.36
2022-07-29T13:21:42.182Z,57.06
2022-07-29T13:24:26.965Z,54.54
2022-07-29T13:27:14.914Z,52.42
2022-07-29T13:29:59.580Z,54.27
2022-07-29T13:32:44.225Z,57.26
2022-07-29T13:35:29.559Z,60.50
2022-07-29T13:38:14.194Z,61.25
2022-07-29T13:40:58.885Z,59.57
2022-07-29T13:43:43.559Z,60.82
2022-07-29T13:46:28.578Z,59.60
2022-07-29T13:49:13.691Z,61.35
2022-07-29T13:51:59.361Z,58.91
2022-07-29T13:54:44.784Z,58.55
2022-07-29T13:57:29.355Z,59.05
2022-07-29T14:00:14.168Z,61.19
2022-07-29T14:02:58.938Z,58.88
2022-07-29T14:05:43.727Z,60.91
2022-07-29T14:08:28.482Z,59.21
2022-07-29T14:11:13.295Z,59.41
2022-07-29T14:13:57.934Z,59.85
2022-07-29T14:16:47.766Z,61.80
2022-07-29T14:19:37.379Z,61.59
2022-07-29T14:22:25.382Z,61.06
2022-07-29T14:25:14.459Z,61.07
2022-07-29T14:27:59.951Z,61.74
2022-07-29T14:30:44.785Z,61.03
2022-07-29T14:33:29.403Z,59.31
2022-07-29T14:36:14.141Z,59.67
2022-07-29T14:38:59.120Z,59.45
2022-07-29T14:41:44.480Z,60.76
2022-07-29T14:44:29.433Z,60.22
2022-07-29T14:47:14.170Z,61.39
2022-07-29T14:49:59.023Z,60.84
2022-07-29T14:52:43.752Z,62.39
2022-07-29T14:55:28.608Z,62.28
2022-07-29T14:58:16.550Z,62.40
2022-07-29T15:01:01.796Z,61.68
2022-07-29T15:03:47.015Z,60.14
2022-07-29T15:06:31.620Z,58.68
2022-07-29T15:09:16.468Z,58.09
2022-07-29T15:12:01.473Z,58.64
2022-07-29T15:14:46.635Z,58.58
2022-07-29T15:17:31.427Z,59.66
2022-07-29T15:20:16.161Z,59.93
2022-07-29T15:23:00.785Z,60.90
2022-07-29T15:25:45.452Z,60.38
2022-07-29T15:28:30.278Z,59.87
2022-07-29T15:31:14.918Z,59.69
2022-07-29T15:34:05.039Z,59.70
2022-07-29T15:36:52.787Z,59.64
2022-07-29T15:39:38.258Z,61.68
2022-07-29T15:42:23.015Z,60.14
2022-07-29T15:45:07.675Z,60.32
2022-07-29T15:47:52.463Z,60.96
2022-07-29T15:50:38.350Z,61.01
2022-07-29T15:53:23.090Z,61.30
2022-07-29T15:56:07.910Z,60.87
2022-07-29T15:58:52.640Z,61.84
2022-07-29T16:01:37.440Z,62.62
2022-07-29T16:04:28.011Z,62.25
2022-07-29T16:07:12.659Z,64.33
2022-07-29T16:09:59.536Z,64.72
2022-07-29T16:12:44.242Z,64.77
2022-07-29T16:15:29.054Z,65.97
2022-07-29T16:18:13.902Z,65.33
2022-07-29T16:20:58.591Z,65.80
2022-07-29T16:23:43.441Z,67.64
2022-07-29T16:26:28.080Z,68.30
2022-07-29T16:29:12.915Z,66.53
2022-07-29T16:31:57.699Z,64.61
2022-07-29T16:34:43.027Z,65.76
2022-07-29T16:37:28.808Z,66.89
2022-07-29T16:40:13.974Z,64.69
2022-07-29T16:42:58.819Z,64.09
2022-07-29T16:45:46.090Z,63.50
2022-07-29T16:48:31.467Z,63.65
2022-07-29T16:51:16.164Z,64.47
2022-07-29T16:54:01.022Z,64.37
2022-07-29T16:56:45.830Z,64.60
2022-07-29T16:59:30.544Z,65.27
2022-07-29T17:02:15.427Z,65.73
2022-07-29T17:05:00.601Z,66.21
2022-07-29T17:07:47.974Z,63.86
2022-07-29T17:10:32.713Z,62.76
2022-07-29T17:13:17.467Z,63.15
2022-07-29T17:16:02.192Z,64.06
2022-07-29T17:18:47.341Z,64.71
2022-07-29T17:21:32.110Z,63.34
2022-07-29T17:24:16.819Z,63.75
2022-07-29T17:27:01.823Z,62.74
2022-07-29T17:29:46.596Z,62.85
2022-07-29T17:32:31.424Z,63.42
2022-07-29T17:35:16.229Z,63.97
2022-07-29T17:38:01.084Z,64.14
2022-07-29T17:40:45.724Z,65.61
2022-07-29T17:43:30.494Z,67.86
2022-07-29T17:46:15.300Z,68.19
2022-07-29T17:49:00.496Z,68.07
2022-07-29T17:51:45.210Z,67.39
2022-07-29T17:54:30.026Z,66.66
2022-07-29T17:57:14.855Z,65.94
2022-07-29T17:59:59.514Z,65.74
2022-07-29T18:02:44.314Z,66.05
2022-07-29T18:05:29.354Z,65.83
2022-07-29T18:08:14.214Z,65.01
2022-07-29T18:10:59.032Z,64.86
2022-07-29T18:13:43.730Z,64.59
2022-07-29T18:16:28.438Z,64.28
2022-07-29T18:19:13.670Z,65.00
2022-07-29T18:22:03.521Z,65.83
2022-07-29T18:24:50.642Z,65.42
2022-07-29T18:27:35.314Z,65.88
2022-07-29T18:30:20.080Z,65.36
2022-07-29T18:33:20.686Z,65.45
2022-07-29T18:36:11.448Z,65.68
2022-07-29T18:38:56.893Z,66.08
2022-07-29T18:41:49.947Z,66.17
2022-07-29T18:44:43.502Z,66.08
2022-07-29T18:47:32.303Z,65.55
2022-07-29T18:50:17.604Z,66.02
2022-07-29T18:53:02.421Z,65.26
2022-07-29T18:55:47.301Z,65.37
2022-07-29T18:58:32.109Z,65.78
2022-07-29T19:01:17.029Z,64.99
2022-07-29T19:04:01.736Z,65.55
2022-07-29T19:06:46.570Z,65.80
2022-07-29T19:09:31.377Z,66.58
2022-07-29T19:12:16.573Z,66.65
2022-07-29T19:15:01.203Z,66.61
2022-07-29T19:17:46.006Z,66.74
2022-07-29T19:20:30.759Z,66.91
2022-07-29T19:23:15.416Z,67.21
2022-07-29T19:26:00.310Z,66.64
2022-07-29T19:28:48.806Z,66.07
2022-07-29T19:31:34.557Z,66.19
2022-07-29T19:34:19.859Z,65.11
2022-07-29T19:37:04.510Z,65.71
2022-07-29T19:39:49.342Z,65.17
2022-07-29T19:42:34.146Z,64.83
2022-07-29T19:45:19.015Z,63.65
2022-07-29T19:48:03.695Z,63.66
2022-07-29T19:50:48.501Z,63.57
2022-07-29T19:53:33.199Z,63.33
2022-07-29T19:56:17.903Z,62.59
2022-07-29T19:59:02.627Z,62.65
2022-07-29T20:01:52.521Z,61.98
2022-07-29T20:04:37.663Z,61.90
2022-07-29T20:07:22.363Z,61.75
2022-07-29T20:10:06.977Z,61.21
2022-07-29T20:12:52.469Z,60.92
2022-07-29T20:15:39.886Z,61.07
2022-07-29T20:18:25.261Z,61.79
2022-07-29T20:21:09.911Z,61.51
2022-07-29T20:23:54.679Z,60.30
2022-07-29T20:26:39.513Z,60.30
2022-07-29T20:29:24.117Z,59.82
2022-07-29T20:32:08.936Z,61.08
2022-07-29T20:34:53.710Z,59.48
2022-07-29T20:37:52.246Z,60.37
2022-07-29T20:40:41.300Z,60.14
2022-07-29T20:43:25.958Z,60.83
2022-07-29T20:46:10.730Z,60.67
2022-07-29T20:48:55.414Z,59.68
2022-07-29T20:51:43.511Z,59.51
2022-07-29T20:54:28.780Z,60.84
2022-07-29T20:57:13.615Z,60.79
2022-07-29T20:59:58.298Z,60.78
2022-07-29T21:02:42.993Z,60.73
2022-07-29T21:05:28.347Z,60.42
2022-07-29T21:08:13.130Z,59.76
2022-07-29T21:10:57.831Z,59.49
2022-07-29T21:13:42.497Z,60.20
2022-07-29T21:16:27.428Z,60.34
2022-07-29T21:19:12.490Z,61.64
2022-07-29T21:21:57.332Z,62.11
2022-07-29T21:24:42.111Z,62.32
2022-07-29T21:27:27.949Z,62.80
2022-07-29T21:30:13.235Z,62.60
2022-07-29T21:32:58.012Z,63.39
2022-07-29T21:36:01.629Z,63.89
2022-07-29T21:38:47.804Z,64.17
2022-07-29T21:41:32.647Z,64.76
2022-07-29T21:44:17.608Z,64.96
2022-07-29T21:47:02.716Z,64.40
2022-07-29T21:49:47.729Z,64.41
2022-07-29T21:52:34.432Z,65.10
2022-07-29T21:55:21.979Z,64.79
2022-07-29T21:58:09.431Z,65.40
2022-07-29T22:00:54.226Z,64.95
2022-07-29T22:03:40.411Z,64.74
2022-07-29T22:06:25.223Z,64.51
2022-07-29T22:09:09.964Z,64.58
2022-07-29T22:11:54.839Z,64.93
2022-07-29T22:14:39.586Z,65.26
2022-07-29T22:17:24.815Z,65.31
2022-07-29T22:20:09.549Z,64.79
2022-07-29T22:22:54.257Z,65.53
2022-07-29T22:25:38.960Z,64.87
2022-07-29T22:28:23.676Z,65.64
2022-07-29T22:31:08.436Z,65.18
2022-07-29T22:33:53.516Z,65.27
2022-07-29T22:36:38.311Z,65.23
2022-07-29T22:39:23.172Z,65.10
2022-07-29T22:42:08.015Z,65.55
2022-07-29T22:44:52.785Z,65.35
2022-07-29T22:47:46.115Z,65.61
2022-07-29T22:50:33.597Z,64.71
2022-07-29T22:53:18.351Z,64.31
2022-07-29T22:56:03.523Z,64.26
2022-07-29T22:58:48.437Z,64.05
2022-07-29T23:01:37.853Z,62.36
2022-07-29T23:04:23.391Z,61.68
2022-07-29T23:07:08.281Z,60.99
2022-07-29T23:09:52.956Z,61.34
2022-07-29T23:12:37.846Z,60.77
2022-07-29T23:15:22.506Z,61.24
2022-07-29T23:18:07.326Z,59.47
2022-07-29T23:20:52.114Z,59.96
2022-07-29T23:23:36.952Z,60.03
2022-07-29T23:26:21.567Z,60.29
2022-07-29T23:29:06.214Z,60.39
2022-07-29T23:31:51.009Z,60.78
2022-07-29T23:34:35.726Z,60.66
2022-07-29T23:37:20.535Z,60.89
2022-07-29T23:40:05.356Z,61.66
2022-07-29T23:42:50.275Z,60.62
2022-07-29T23:45:44.673Z,60.63
2022-07-29T23:48:33.319Z,60.34
2022-07-29T23:51:18.094Z,60.03
2022-07-29T23:54:02.807Z,60.33
2022-07-29T23:56:47.548Z,60.68
2022-07-29T23:59:32.474Z,59.94
